Pagina principale
METAR-TAF:

METAR-TAF

Aeroporti :

Entrammes

Laval, Francia

latitudine: 48-01-56N, longitudine: 000-44-34W, altezza: 101 m

Osservazione

Il bollettino è stato emesso 37 minuti fa, alle 11:30 UTC
Vento 11 kt da ovest, variando fra sud-ovest e ovest/nord-ovest
Temperature 13°C
Umidità 77%
Pressione 1006 hPa
Visibilità 10 km o più
Nubi sparse ad un'altezza di 2700 ft
Nuvoloso ad un'altezza di 3300 ft
Nuvoloso ad un'altezza di 7200 ft

METAR: LFOV 261130Z AUTO 26011KT 220V290 9999 SCT027 BKN033 BKN072 13/09 Q1006

Ora: 13:07 (12:07 UTC)


TAF: mancante

Osservazioni e previsioni meteorologiche di più di 4000 aeroporti (messaggi METAR e TAF).

Le stazioni disponibili sono rappresentate dai dischi gialli e rossi sulla carta.

Puntare il mouse per vedere il nome della stazione.

Clicca sopra per visualizzare le osservazioni e previsioni meteorologiche.

Per cambiare la mappa : fare clic sui pulsanti verdi con una croce nera per ingrandire, il pulsante verde con un trattino per diminuire, o sulla freccia verde per le mappe adiacenti.


METAR-TAF: